| Record Date MM/DD/YYYY | Record Time HH:MM:SS | Record Julian Date NNN day of the year | Air Temperature Max (Degrees Fahrenheit F) | Time Max Air Temperature HH:MM:SS This is the time of max air temp for the prior hour interval listed for record [Time]. | Air Temperature Min (Degrees Fahrenheit F) | Time Min Air Temperature HH:MM:SS This is the time of min air temp for the prior hour interval listed for record [Time]. | Air Temperature Observed (Degrees Fahrenheit F) This is an instantaneous reading at the record [Time]. | Relative Humidity Max (Percent) | Time Max Relative Humidity HH:MM:SS This is the time of max relative humidity for the prior hour interval listed for record [Time]. | Relative Humidity Min (Percent) | Time Min Relative Humidity HH:MM:SS This is the time of min relative humidity for the prior hour interval listed for record [Time]. | Relative Humidity Observed (Percent) This is an instantaneous reading at the record [Time]. | Precipitation (Inches n.nn) rain fall that occurred during the prior hour interval listed for record [Time]. | Wind Speed (Miles Per Hour) Resultant Speed that occurred during the prior hour interval listed for record [Time]. | Wind Direction (Degrees) Resultant Direction that occurred during the prior hour interval listed for record [Time]. | Solar Radiation (Langley's) that occurred during the prior hour interval listed for record [Time]. | Soil Temperature Average at 2 inch depth (Degrees Fahrenheit F) that occurred during the prior hour interval listed for record [Time]. | Soil Temperature Observed at 2 inch depth (Degrees Fahrenheit F) This is an instantaneous reading at the record [Time]. | Soil Temperature Average at 4 inch depth (Degrees Fahrenheit F) that occurred during the prior hour interval listed for record [Time]. | Soil Temperature Observed at 4 inch depth (Degrees Fahrenheit F) This is an instantaneous reading at the record [Time]. |
|---|---|---|---|---|---|---|---|---|---|---|---|---|---|---|---|---|---|---|---|---|
| 04/30/2026 | 0:00:00 | 120 | 65 | 23:00:04 | 65 | 23:59:03 | 65 | 91 | 23:56:00 | 90 | 23:43:03 | 90.6 | 0 | 5.8 | 357 | 0 | 73 | 72 | 73 | 73 |
| 04/30/2026 | 1:00:00 | 120 | 65 | 0:00:00 | 63 | 0:59:04 | 63 | 92 | 0:59:05 | 91 | 0:00:02 | 92.4 | 0.01 | 8.2 | 10 | 0 | 72 | 72 | 73 | 73 |
| 04/30/2026 | 2:00:00 | 120 | 63 | 1:00:00 | 62 | 1:47:00 | 62 | 94 | 1:57:00 | 92 | 1:00:01 | 94.1 | 0.08 | 7.2 | 14 | 0 | 72 | 72 | 73 | 73 |
| 04/30/2026 | 3:00:00 | 120 | 62 | 2:45:01 | 62 | 2:01:04 | 62 | 95 | 2:58:04 | 94 | 2:00:00 | 95.1 | 0 | 5.8 | 17 | 0 | 71 | 71 | 72 | 72 |
| 04/30/2026 | 4:00:00 | 120 | 62 | 3:48:05 | 62 | 3:11:04 | 62 | 95 | 3:49:00 | 95 | 3:00:04 | 95.2 | 0 | 6.2 | 15 | 0 | 71 | 71 | 72 | 72 |
| 04/30/2026 | 5:00:00 | 120 | 62 | 4:00:02 | 61 | 4:53:00 | 61 | 95 | 4:01:02 | 93 | 4:58:04 | 93.2 | 0 | 7.9 | 16 | 0 | 71 | 71 | 72 | 72 |
| 04/30/2026 | 6:00:00 | 120 | 61 | 5:01:00 | 61 | 5:59:00 | 61 | 93 | 5:00:01 | 91 | 5:59:03 | 90.6 | 0 | 9.2 | 18 | 1 | 70 | 70 | 72 | 71 |
| 04/30/2026 | 7:00:00 | 120 | 61 | 6:00:00 | 60 | 6:48:04 | 60 | 91 | 6:00:00 | 89 | 6:58:04 | 88.5 | 0 | 8.9 | 21 | 6 | 70 | 70 | 71 | 71 |
| 04/30/2026 | 8:00:00 | 120 | 61 | 7:59:00 | 60 | 7:19:00 | 61 | 89 | 7:00:00 | 86 | 7:59:05 | 86.3 | 0 | 6.2 | 26 | 15 | 70 | 70 | 71 | 71 |
| 04/30/2026 | 9:00:00 | 120 | 63 | 8:42:04 | 61 | 8:02:05 | 63 | 86 | 8:00:01 | 83 | 8:58:04 | 83.1 | 0 | 4.8 | 27 | 27 | 70 | 71 | 71 | 71 |
| 04/30/2026 | 10:00:00 | 120 | 66 | 9:56:02 | 63 | 9:00:00 | 65 | 83 | 9:00:05 | 80 | 9:58:01 | 80.4 | 0 | 3.5 | 32 | 39 | 71 | 72 | 71 | 71 |
| 04/30/2026 | 11:00:00 | 120 | 67 | 10:25:04 | 65 | 10:04:04 | 66 | 81 | 10:01:01 | 78 | 10:58:01 | 78.22 | 0 | 3.0 | 33 | 44 | 72 | 73 | 72 | 72 |
| 04/30/2026 | 12:00:00 | 120 | 69 | 11:47:00 | 66 | 11:16:00 | 68 | 78 | 11:01:02 | 76 | 11:48:04 | 76.6 | 0 | 4.2 | 30 | 60 | 73 | 74 | 72 | 73 |
| 04/30/2026 | 13:00:00 | 120 | 69 | 12:04:02 | 68 | 12:00:00 | 68 | 77 | 12:00:00 | 73 | 12:59:01 | 73.13 | 0 | 5.0 | 26 | 49 | 75 | 76 | 73 | 74 |
| 04/30/2026 | 14:00:00 | 120 | 69 | 13:12:01 | 67 | 13:45:01 | 68 | 74 | 13:01:02 | 71 | 14:00:00 | 70.78 | 0 | 7.2 | 21 | 35 | 76 | 76 | 74 | 74 |
| 04/30/2026 | 15:00:00 | 120 | 68 | 14:02:00 | 66 | 14:56:05 | 67 | 71 | 14:00:05 | 70 | 14:59:02 | 70 | 0 | 8.6 | 15 | 26 | 76 | 76 | 75 | 75 |
| 04/30/2026 | 16:00:00 | 120 | 67 | 15:01:02 | 66 | 15:52:03 | 66 | 70 | 15:01:02 | 69 | 15:54:03 | 69.19 | 0 | 8.6 | 16 | 18 | 76 | 76 | 75 | 75 |
| 04/30/2026 | 17:00:00 | 120 | 66 | 16:00:00 | 65 | 16:59:01 | 65 | 70 | 16:58:01 | 69 | 16:02:01 | 70.14 | 0 | 7.0 | 16 | 7 | 75 | 75 | 75 | 75 |
| 04/30/2026 | 18:00:00 | 120 | 65 | 17:00:00 | 64 | 17:56:01 | 64 | 73 | 17:59:02 | 70 | 17:00:00 | 73.04 | 0 | 3.8 | 15 | 3 | 75 | 74 | 75 | 74 |
| 04/30/2026 | 19:00:00 | 120 | 64 | 18:00:01 | 63 | 19:00:00 | 63 | 75 | 18:59:04 | 73 | 18:00:00 | 75.35 | 0 | 2.4 | 11 | 0 | 74 | 74 | 74 | 74 |
| 04/30/2026 | 20:00:00 | 120 | 64 | 19:02:04 | 63 | 19:59:01 | 63 | 77 | 19:59:04 | 75 | 19:00:02 | 76.8 | 0 | 4.3 | 11 | 0 | 73 | 73 | 74 | 73 |
| 04/30/2026 | 21:00:00 | 120 | 63 | 20:00:01 | 62 | 20:59:05 | 62 | 78 | 20:50:03 | 77 | 20:00:00 | 77.71 | 0 | 5.2 | 15 | 0 | 73 | 72 | 73 | 73 |
| 04/30/2026 | 22:00:00 | 120 | 62 | 21:00:01 | 61 | 21:58:04 | 61 | 78 | 21:52:04 | 78 | 21:08:01 | 78.45 | 0 | 4.0 | 13 | 0 | 72 | 72 | 73 | 73 |
| 04/30/2026 | 23:00:00 | 120 | 62 | 22:05:04 | 61 | 22:59:03 | 61 | 79 | 22:58:05 | 78 | 22:14:03 | 78.79 | 0 | 4.8 | 9 | 0 | 71 | 71 | 72 | 72 |
| 05/01/2026 | 0:00:00 | 121 | 61 | 23:00:02 | 60 | 23:57:01 | 60 | 79 | 23:58:01 | 79 | 23:00:02 | 79.37 | 0 | 5.2 | 12 | 0 | 71 | 71 | 72 | 72 |
| 05/01/2026 | 1:00:00 | 121 | 60 | 0:00:05 | 59 | 0:59:05 | 59 | 80 | 0:58:04 | 79 | 0:00:00 | 80.2 | 0 | 4.3 | 16 | 0 | 70 | 70 | 72 | 71 |
| 05/01/2026 | 2:00:00 | 121 | 59 | 1:02:00 | 59 | 1:57:01 | 59 | 81 | 1:44:02 | 80 | 1:00:05 | 80.3 | 0 | 5.4 | 12 | 0 | 70 | 70 | 71 | 71 |
| 05/01/2026 | 3:00:00 | 121 | 59 | 2:04:00 | 58 | 2:58:05 | 58 | 80 | 2:59:03 | 80 | 2:25:02 | 80.4 | 0 | 4.2 | 15 | 0 | 70 | 69 | 71 | 71 |
| 05/01/2026 | 4:00:00 | 121 | 58 | 3:00:00 | 58 | 3:58:01 | 58 | 81 | 3:58:04 | 80 | 3:05:00 | 80.8 | 0 | 3.5 | 8 | 0 | 69 | 69 | 71 | 70 |
| 05/01/2026 | 5:00:00 | 121 | 58 | 4:00:02 | 57 | 4:58:03 | 57 | 82 | 4:57:03 | 81 | 4:03:01 | 81.9 | 0 | 2.3 | 12 | 0 | 69 | 69 | 70 | 70 |
| 05/01/2026 | 6:00:00 | 121 | 57 | 5:02:05 | 57 | 5:57:04 | 57 | 83 | 5:56:00 | 82 | 5:00:00 | 82.9 | 0 | 4.2 | 3 | 0 | 69 | 69 | 70 | 70 |
| 05/01/2026 | 7:00:00 | 121 | 57 | 6:54:02 | 57 | 6:02:03 | 57 | 84 | 6:59:04 | 83 | 6:02:03 | 83.5 | 0 | 3.8 | 11 | 3 | 69 | 68 | 70 | 70 |
| 05/01/2026 | 8:00:00 | 121 | 58 | 8:00:00 | 57 | 7:03:03 | 58 | 84 | 7:17:01 | 83 | 7:58:02 | 83.3 | 0 | 5.6 | 9 | 6 | 68 | 68 | 70 | 70 |
| 05/01/2026 | 9:00:00 | 121 | 59 | 8:59:05 | 58 | 8:00:01 | 59 | 83 | 8:00:00 | 82 | 8:56:02 | 82 | 0 | 3.6 | 10 | 9 | 68 | 69 | 70 | 69 |
| 05/01/2026 | 10:00:00 | 121 | 60 | 9:54:05 | 59 | 9:00:03 | 60 | 82 | 9:02:02 | 80 | 10:00:00 | 79.7 | 0 | 4.4 | 24 | 16 | 69 | 69 | 69 | 70 |
| 05/01/2026 | 11:00:00 | 121 | 61 | 10:33:02 | 60 | 10:00:02 | 60 | 80 | 10:00:04 | 77 | 10:58:04 | 76.68 | 0 | 5.4 | 19 | 15 | 69 | 69 | 70 | 70 |
| 05/01/2026 | 12:00:00 | 121 | 61 | 11:34:03 | 60 | 11:01:04 | 61 | 77 | 11:00:01 | 74 | 11:59:05 | 74.05 | 0 | 5.3 | 17 | 15 | 69 | 69 | 70 | 70 |
| 05/01/2026 | 13:00:00 | 121 | 62 | 12:45:05 | 61 | 12:00:01 | 61 | 74 | 12:02:01 | 73 | 12:59:05 | 72.95 | 0 | 3.1 | 23 | 17 | 70 | 70 | 70 | 70 |
| 05/01/2026 | 14:00:00 | 121 | 63 | 13:48:04 | 61 | 13:00:01 | 62 | 73 | 13:01:05 | 71 | 13:58:04 | 71.16 | 0 | 2.8 | 26 | 19 | 70 | 70 | 70 | 70 |
| 05/01/2026 | 15:00:00 | 121 | 64 | 14:34:04 | 62 | 14:00:05 | 64 | 71 | 14:04:05 | 69 | 14:59:01 | 68.76 | 0 | 4.2 | 24 | 27 | 70 | 71 | 70 | 70 |
| 05/01/2026 | 16:00:00 | 121 | 64 | 15:14:01 | 63 | 15:59:05 | 63 | 69 | 15:00:00 | 67 | 15:59:05 | 67.01 | 0 | 4.4 | 26 | 19 | 71 | 71 | 70 | 71 |
| 05/01/2026 | 17:00:00 | 121 | 63 | 16:02:04 | 63 | 17:00:00 | 63 | 69 | 16:59:04 | 67 | 16:00:01 | 68.64 | 0 | 3.8 | 25 | 9 | 71 | 71 | 71 | 71 |
| 05/01/2026 | 18:00:00 | 121 | 63 | 17:00:02 | 62 | 17:52:02 | 62 | 71 | 17:59:04 | 69 | 17:00:00 | 71.37 | 0 | 1.9 | 25 | 4 | 71 | 71 | 71 | 71 |
| 05/01/2026 | 19:00:00 | 121 | 62 | 18:00:00 | 61 | 18:59:03 | 61 | 76 | 18:59:05 | 71 | 18:00:01 | 75.78 | 0 | 0.0 | 21 | 0 | 70 | 70 | 71 | 71 |
| 05/01/2026 | 20:00:00 | 121 | 61 | 19:00:00 | 60 | 19:48:03 | 60 | 81 | 19:59:02 | 76 | 19:00:01 | 80.8 | 0 | 1.3 | 347 | 0 | 70 | 70 | 70 | 70 |
| 05/01/2026 | 21:00:00 | 121 | 61 | 20:21:01 | 60 | 20:59:04 | 60 | 81 | 20:06:03 | 77 | 20:59:04 | 76.6 | 0 | 6.9 | 360 | 0 | 69 | 69 | 70 | 70 |
| 05/01/2026 | 22:00:00 | 121 | 60 | 21:00:00 | 59 | 21:57:01 | 59 | 77 | 21:00:00 | 74 | 21:59:03 | 73.84 | 0 | 5.9 | 0 | 0 | 69 | 69 | 70 | 70 |
| 05/01/2026 | 23:00:00 | 121 | 59 | 22:01:03 | 59 | 22:54:03 | 59 | 74 | 22:00:00 | 73 | 22:59:02 | 72.95 | 0 | 4.9 | 6 | 0 | 68 | 68 | 70 | 69 |
| 05/02/2026 | 0:00:00 | 122 | 59 | 23:07:03 | 58 | 23:59:04 | 58 | 73 | 23:00:01 | 72 | 23:59:03 | 72.02 | 0 | 4.1 | 13 | 0 | 68 | 68 | 69 | 69 |
| 05/02/2026 | 1:00:00 | 122 | 58 | 0:05:04 | 58 | 0:38:05 | 58 | 72 | 0:58:03 | 72 | 0:01:05 | 72.46 | 0 | 3.7 | 11 | 0 | 68 | 68 | 69 | 69 |
| 05/02/2026 | 2:00:00 | 122 | 58 | 1:00:00 | 57 | 1:39:00 | 57 | 73 | 1:47:05 | 72 | 1:02:00 | 73.34 | 0 | 3.7 | 5 | 0 | 67 | 67 | 69 | 69 |
| 05/02/2026 | 3:00:00 | 122 | 57 | 2:06:05 | 57 | 2:58:03 | 57 | 73 | 2:59:05 | 73 | 2:39:03 | 73.4 | 0 | 4.6 | 4 | 0 | 67 | 67 | 68 | 68 |
| 05/02/2026 | 4:00:00 | 122 | 57 | 3:00:00 | 55 | 3:49:03 | 55 | 76 | 3:58:05 | 73 | 3:00:00 | 75.49 | 0 | 4.1 | 357 | 0 | 67 | 67 | 68 | 68 |
| 05/02/2026 | 5:00:00 | 122 | 56 | 4:06:02 | 54 | 4:53:01 | 54 | 78 | 4:59:00 | 75 | 4:00:00 | 77.55 | 0 | 4.2 | 353 | 0 | 66 | 66 | 68 | 68 |
| 05/02/2026 | 6:00:00 | 122 | 54 | 5:02:02 | 53 | 5:52:00 | 53 | 79 | 5:59:01 | 78 | 5:00:00 | 79.39 | 0 | 5.2 | 353 | 1 | 66 | 66 | 68 | 67 |
| 05/02/2026 | 7:00:00 | 122 | 55 | 6:59:02 | 53 | 6:18:00 | 55 | 80 | 6:33:03 | 79 | 6:00:01 | 79.55 | 0 | 5.8 | 356 | 4 | 66 | 66 | 67 | 67 |
| 05/02/2026 | 8:00:00 | 122 | 60 | 7:59:03 | 55 | 7:00:01 | 60 | 80 | 7:01:03 | 75 | 7:59:05 | 74.88 | 0 | 5.9 | 1 | 35 | 66 | 66 | 67 | 67 |
| 05/02/2026 | 9:00:00 | 122 | 63 | 8:59:03 | 60 | 8:00:01 | 63 | 75 | 8:02:00 | 69 | 8:59:05 | 69.11 | 0 | 5.1 | 3 | 54 | 67 | 68 | 67 | 67 |
| 05/02/2026 | 10:00:00 | 122 | 65 | 9:55:02 | 63 | 9:00:01 | 65 | 69 | 9:00:04 | 64 | 9:59:05 | 63.73 | 0 | 4.8 | 2 | 66 | 69 | 70 | 68 | 68 |
| 05/02/2026 | 11:00:00 | 122 | 67 | 10:57:04 | 65 | 10:01:02 | 67 | 64 | 10:02:05 | 58 | 10:58:03 | 58.86 | 0 | 6.7 | 356 | 75 | 71 | 72 | 69 | 70 |
| 05/02/2026 | 12:00:00 | 122 | 69 | 11:59:05 | 67 | 11:19:03 | 69 | 59 | 11:00:01 | 52 | 11:57:02 | 52.35 | 0 | 7.9 | 360 | 79 | 73 | 75 | 70 | 71 |
| 05/02/2026 | 13:00:00 | 122 | 71 | 12:57:05 | 69 | 12:16:05 | 71 | 52 | 12:00:01 | 48 | 13:00:00 | 47.75 | 0 | 6.3 | 357 | 79 | 76 | 77 | 72 | 73 |
| 05/02/2026 | 14:00:00 | 122 | 71 | 13:23:01 | 70 | 13:41:02 | 70 | 48 | 13:04:02 | 46 | 13:56:00 | 46.2 | 0 | 7.5 | 355 | 57 | 78 | 78 | 74 | 74 |
| 05/02/2026 | 15:00:00 | 122 | 73 | 14:48:00 | 70 | 14:00:00 | 72 | 47 | 14:02:02 | 44 | 15:00:00 | 43.71 | 0 | 8.4 | 334 | 63 | 78 | 78 | 75 | 75 |
| 05/02/2026 | 16:00:00 | 122 | 72 | 15:49:05 | 71 | 15:17:00 | 72 | 44 | 15:02:03 | 42 | 15:56:05 | 41.64 | 0 | 8.5 | 326 | 48 | 78 | 78 | 75 | 76 |
| 05/02/2026 | 17:00:00 | 122 | 72 | 16:16:04 | 70 | 16:59:05 | 70 | 42 | 16:59:04 | 41 | 16:18:00 | 42.33 | 0 | 7.3 | 344 | 20 | 78 | 77 | 76 | 76 |
| 05/02/2026 | 18:00:00 | 122 | 72 | 17:26:02 | 70 | 17:04:00 | 70 | 44 | 17:59:03 | 42 | 17:01:00 | 43.8 | 0 | 4.8 | 345 | 7 | 77 | 76 | 76 | 75 |
| 05/02/2026 | 19:00:00 | 122 | 70 | 18:00:00 | 64 | 18:59:03 | 64 | 51 | 18:59:05 | 44 | 18:00:02 | 50.79 | 0 | 2.2 | 354 | 2 | 75 | 75 | 75 | 75 |
| 05/02/2026 | 20:00:00 | 122 | 64 | 19:00:00 | 62 | 19:59:00 | 62 | 55 | 20:00:00 | 51 | 19:00:02 | 55.39 | 0 | 0.1 | 21 | 0 | 74 | 73 | 74 | 74 |
| 05/02/2026 | 21:00:00 | 122 | 62 | 20:03:01 | 59 | 20:50:05 | 60 | 60 | 21:00:00 | 55 | 20:00:03 | 59.97 | 0 | 0.0 | 0 | 0 | 73 | 72 | 74 | 73 |
| 05/02/2026 | 22:00:00 | 122 | 60 | 21:04:01 | 58 | 21:36:05 | 59 | 66 | 22:00:00 | 60 | 21:00:01 | 66.46 | 0 | 0.2 | 8 | 0 | 72 | 71 | 73 | 72 |
| 05/02/2026 | 23:00:00 | 122 | 59 | 22:00:03 | 57 | 22:52:04 | 57 | 72 | 22:59:05 | 66 | 22:00:00 | 71.7 | 0 | 0.5 | 23 | 0 | 71 | 70 | 72 | 72 |
| 05/03/2026 | 0:00:00 | 123 | 57 | 23:00:00 | 55 | 0:00:00 | 55 | 75 | 23:59:05 | 72 | 23:09:00 | 75.19 | 0 | 0.2 | 26 | 0 | 70 | 69 | 71 | 71 |
| 05/03/2026 | 1:00:00 | 123 | 55 | 0:00:00 | 55 | 0:54:04 | 55 | 78 | 0:59:05 | 75 | 0:00:00 | 78.18 | 0 | 0.7 | 2 | 0 | 69 | 69 | 71 | 70 |
| 05/03/2026 | 2:00:00 | 123 | 55 | 1:04:01 | 53 | 1:59:03 | 53 | 81 | 1:59:03 | 78 | 1:02:01 | 81 | 0 | 1.3 | 334 | 0 | 68 | 68 | 70 | 70 |
| 05/03/2026 | 3:00:00 | 123 | 55 | 2:35:04 | 53 | 2:19:04 | 54 | 82 | 2:41:01 | 81 | 2:00:00 | 81.6 | 0 | 1.3 | 0 | 0 | 68 | 67 | 70 | 69 |
| 05/03/2026 | 4:00:00 | 123 | 54 | 3:25:03 | 53 | 3:58:00 | 53 | 82 | 3:58:05 | 81 | 3:28:04 | 81.7 | 0 | 1.0 | 53 | 0 | 67 | 67 | 69 | 69 |
| 05/03/2026 | 5:00:00 | 123 | 54 | 4:27:00 | 53 | 4:00:01 | 53 | 82 | 4:01:02 | 81 | 4:59:03 | 80.8 | 0 | 4.3 | 95 | 0 | 67 | 66 | 69 | 68 |
| 05/03/2026 | 6:00:00 | 123 | 53 | 5:59:04 | 53 | 5:35:02 | 53 | 81 | 5:00:01 | 79 | 5:59:02 | 79.03 | 0 | 5.7 | 96 | 1 | 66 | 66 | 68 | 68 |
| 05/03/2026 | 7:00:00 | 123 | 57 | 7:00:00 | 53 | 6:00:01 | 57 | 79 | 6:00:04 | 76 | 6:59:00 | 76.2 | 0 | 6.3 | 104 | 5 | 66 | 65 | 68 | 67 |
| 05/03/2026 | 8:00:00 | 123 | 61 | 8:00:00 | 57 | 7:00:01 | 61 | 76 | 7:00:03 | 71 | 7:59:00 | 70.85 | 0 | 7.6 | 113 | 35 | 65 | 66 | 67 | 67 |
| 05/03/2026 | 9:00:00 | 123 | 64 | 8:59:02 | 61 | 8:03:03 | 64 | 71 | 8:00:00 | 66 | 8:59:05 | 66.19 | 0 | 6.9 | 118 | 54 | 66 | 67 | 67 | 67 |
| 05/03/2026 | 10:00:00 | 123 | 69 | 9:54:00 | 64 | 9:01:00 | 69 | 67 | 9:01:03 | 63 | 9:59:04 | 63.22 | 0 | 4.6 | 145 | 67 | 68 | 69 | 68 | 68 |
| 05/03/2026 | 11:00:00 | 123 | 72 | 10:46:01 | 69 | 10:08:02 | 72 | 63 | 10:03:04 | 60 | 10:59:04 | 59.78 | 0 | 4.4 | 163 | 75 | 70 | 71 | 69 | 69 |
| 05/03/2026 | 12:00:00 | 123 | 75 | 11:54:00 | 72 | 11:00:00 | 74 | 60 | 11:00:04 | 53 | 11:59:04 | 52.96 | 0 | 3.7 | 232 | 78 | 73 | 74 | 70 | 71 |
| 05/03/2026 | 13:00:00 | 123 | 77 | 12:37:05 | 73 | 12:02:04 | 75 | 53 | 12:01:05 | 48 | 12:59:05 | 48.19 | 0 | 4.3 | 294 | 77 | 75 | 76 | 72 | 72 |
| 05/03/2026 | 14:00:00 | 123 | 77 | 13:57:03 | 75 | 13:05:00 | 77 | 48 | 13:01:05 | 45 | 13:59:02 | 45.03 | 0 | 5.1 | 279 | 71 | 77 | 78 | 73 | 74 |
| 05/03/2026 | 15:00:00 | 123 | 78 | 14:24:02 | 77 | 14:05:02 | 78 | 45 | 14:01:00 | 42 | 14:59:02 | 42.54 | 0 | 4.9 | 287 | 60 | 79 | 79 | 75 | 75 |
| 05/03/2026 | 16:00:00 | 123 | 79 | 15:42:00 | 77 | 15:04:00 | 78 | 43 | 15:00:00 | 41 | 15:56:05 | 40.67 | 0 | 4.5 | 273 | 45 | 79 | 79 | 75 | 76 |
| 05/03/2026 | 17:00:00 | 123 | 80 | 16:23:02 | 78 | 16:00:02 | 79 | 41 | 16:00:01 | 39 | 16:55:03 | 39.07 | 0 | 3.6 | 244 | 27 | 78 | 78 | 76 | 76 |
| 05/03/2026 | 18:00:00 | 123 | 79 | 17:02:01 | 77 | 17:58:05 | 77 | 41 | 18:00:00 | 39 | 17:02:04 | 40.53 | 0 | 4.0 | 240 | 8 | 77 | 77 | 76 | 76 |
| 05/03/2026 | 19:00:00 | 123 | 77 | 18:00:00 | 69 | 18:59:03 | 69 | 50 | 19:00:00 | 40 | 18:00:01 | 49.82 | 0 | 3.1 | 191 | 2 | 76 | 76 | 75 | 75 |
| 05/03/2026 | 20:00:00 | 123 | 69 | 19:00:00 | 67 | 19:38:03 | 67 | 59 | 20:00:00 | 50 | 19:00:00 | 59.09 | 0 | 3.0 | 170 | 0 | 75 | 74 | 75 | 74 |
| 05/03/2026 | 21:00:00 | 123 | 67 | 20:00:00 | 64 | 20:59:02 | 64 | 66 | 20:59:04 | 59 | 20:00:01 | 65.51 | 0 | 3.3 | 136 | 0 | 74 | 73 | 74 | 74 |
| 05/03/2026 | 22:00:00 | 123 | 64 | 21:25:03 | 63 | 21:43:00 | 64 | 70 | 21:59:04 | 66 | 21:00:02 | 70.28 | 0 | 3.8 | 155 | 0 | 73 | 72 | 73 | 73 |
| 05/03/2026 | 23:00:00 | 123 | 64 | 22:00:00 | 62 | 22:56:01 | 62 | 73 | 22:59:04 | 70 | 22:00:00 | 73.38 | 0 | 4.5 | 180 | 0 | 72 | 72 | 73 | 72 |
| 05/04/2026 | 0:00:00 | 124 | 63 | 23:47:05 | 62 | 23:00:00 | 62 | 75 | 23:59:02 | 73 | 23:00:00 | 74.66 | 0 | 5.7 | 177 | 0 | 71 | 71 | 72 | 72 |
| 05/04/2026 | 1:00:00 | 124 | 62 | 0:00:00 | 61 | 0:59:01 | 61 | 77 | 0:59:04 | 75 | 0:00:02 | 77.21 | 0 | 5.7 | 181 | 0 | 71 | 70 | 72 | 71 |
| 05/04/2026 | 2:00:00 | 124 | 61 | 1:00:00 | 59 | 1:59:03 | 59 | 80 | 1:59:03 | 77 | 1:00:00 | 80.2 | 0 | 3.8 | 182 | 0 | 70 | 70 | 71 | 71 |
| 05/04/2026 | 3:00:00 | 124 | 60 | 2:39:02 | 59 | 2:10:03 | 59 | 82 | 3:00:00 | 80 | 2:00:00 | 81.9 | 0 | 4.8 | 186 | 0 | 69 | 69 | 71 | 70 |
| 05/04/2026 | 4:00:00 | 124 | 59 | 3:00:01 | 58 | 3:59:04 | 58 | 84 | 3:59:01 | 82 | 3:00:02 | 83.7 | 0 | 3.5 | 186 | 0 | 69 | 69 | 70 | 70 |
| 05/04/2026 | 5:00:00 | 124 | 58 | 4:00:01 | 56 | 4:59:00 | 56 | 85 | 4:59:02 | 84 | 4:00:00 | 85.3 | 0 | 2.8 | 181 | 0 | 68 | 68 | 70 | 70 |
| 05/04/2026 | 6:00:00 | 124 | 58 | 6:00:00 | 56 | 5:02:05 | 58 | 86 | 5:59:00 | 85 | 5:00:00 | 86.4 | 0 | 3.4 | 179 | 1 | 68 | 68 | 69 | 69 |
| 05/04/2026 | 7:00:00 | 124 | 64 | 6:59:05 | 58 | 6:00:00 | 64 | 86 | 6:00:04 | 83 | 7:00:00 | 82.7 | 0 | 6.1 | 211 | 8 | 68 | 68 | 69 | 69 |
| 05/04/2026 | 8:00:00 | 124 | 69 | 8:00:00 | 64 | 7:00:00 | 69 | 83 | 7:01:02 | 75 | 8:00:00 | 75.05 | 0 | 7.6 | 237 | 32 | 68 | 68 | 69 | 69 |
| 05/04/2026 | 9:00:00 | 124 | 73 | 8:56:02 | 69 | 8:04:03 | 73 | 75 | 8:00:00 | 66 | 8:59:03 | 66.24 | 0 | 8.6 | 252 | 45 | 69 | 69 | 69 | 69 |
| 05/04/2026 | 10:00:00 | 124 | 76 | 9:54:01 | 72 | 9:10:01 | 75 | 66 | 9:00:00 | 59 | 9:59:05 | 59.38 | 0 | 9.1 | 236 | 61 | 70 | 71 | 69 | 70 |
| 05/04/2026 | 11:00:00 | 124 | 77 | 10:53:05 | 75 | 10:03:02 | 77 | 60 | 10:01:01 | 54 | 10:59:03 | 53.93 | 0 | 10.3 | 217 | 74 | 72 | 73 | 70 | 71 |
| 05/04/2026 | 12:00:00 | 124 | 79 | 11:54:02 | 77 | 11:00:02 | 79 | 54 | 11:01:01 | 48 | 11:59:03 | 48.16 | 0 | 11.7 | 213 | 80 | 74 | 75 | 71 | 72 |
| 05/04/2026 | 13:00:00 | 124 | 80 | 12:51:02 | 78 | 12:30:01 | 79 | 48 | 12:00:00 | 46 | 12:58:03 | 45.95 | 0 | 12.2 | 202 | 76 | 76 | 77 | 73 | 73 |
| 05/04/2026 | 14:00:00 | 124 | 80 | 13:25:01 | 78 | 13:09:04 | 80 | 46 | 13:04:00 | 44 | 13:59:05 | 43.74 | 0 | 11.9 | 208 | 68 | 77 | 78 | 74 | 74 |
| 05/04/2026 | 15:00:00 | 124 | 81 | 14:42:00 | 78 | 14:57:05 | 79 | 44 | 14:01:00 | 43 | 14:51:00 | 43.76 | 0 | 12.7 | 209 | 58 | 78 | 78 | 75 | 75 |
| 05/04/2026 | 16:00:00 | 124 | 80 | 15:17:02 | 79 | 15:25:00 | 79 | 44 | 15:56:04 | 43 | 15:20:04 | 43.99 | 0 | 12.9 | 204 | 45 | 78 | 78 | 75 | 75 |
| 05/04/2026 | 17:00:00 | 124 | 79 | 16:00:01 | 78 | 16:50:02 | 78 | 45 | 16:51:04 | 44 | 16:01:03 | 44.77 | 0 | 13.1 | 191 | 27 | 77 | 77 | 75 | 75 |
| 05/04/2026 | 18:00:00 | 124 | 78 | 17:00:00 | 76 | 17:59:03 | 76 | 46 | 17:59:04 | 45 | 17:00:04 | 46.26 | 0 | 12.3 | 184 | 8 | 76 | 76 | 75 | 75 |
| 05/04/2026 | 19:00:00 | 124 | 76 | 18:00:00 | 72 | 18:59:02 | 72 | 50 | 18:59:04 | 46 | 18:00:01 | 50.07 | 0 | 9.2 | 180 | 2 | 75 | 75 | 75 | 74 |
| 05/04/2026 | 20:00:00 | 124 | 72 | 19:00:00 | 70 | 19:51:05 | 70 | 54 | 20:00:00 | 50 | 19:00:01 | 53.58 | 0 | 6.8 | 170 | 0 | 74 | 74 | 74 | 74 |
| 05/04/2026 | 21:00:00 | 124 | 70 | 20:09:00 | 68 | 20:59:03 | 68 | 56 | 20:59:05 | 54 | 20:00:04 | 56.42 | 0 | 7.4 | 176 | 0 | 73 | 73 | 74 | 73 |
| 05/04/2026 | 22:00:00 | 124 | 68 | 21:14:03 | 67 | 21:59:04 | 67 | 60 | 22:00:00 | 56 | 21:00:01 | 59.9 | 0 | 6.0 | 163 | 0 | 72 | 72 | 73 | 73 |
| 05/04/2026 | 23:00:00 | 124 | 67 | 22:00:00 | 66 | 22:22:02 | 66 | 64 | 22:59:05 | 60 | 22:00:00 | 63.54 | 0 | 6.3 | 175 | 0 | 72 | 71 | 72 | 72 |
| 05/05/2026 | 0:00:00 | 125 | 67 | 23:15:04 | 65 | 23:57:05 | 65 | 66 | 23:59:02 | 64 | 23:00:01 | 65.87 | 0 | 7.3 | 179 | 0 | 71 | 71 | 72 | 72 |
| 05/05/2026 | 1:00:00 | 125 | 66 | 0:07:00 | 64 | 0:50:04 | 65 | 68 | 1:00:00 | 66 | 0:00:00 | 68.45 | 0 | 7.4 | 176 | 0 | 71 | 70 | 71 | 71 |
| 05/05/2026 | 2:00:00 | 125 | 65 | 1:00:03 | 63 | 1:59:05 | 63 | 71 | 2:00:00 | 68 | 1:00:00 | 70.85 | 0 | 6.9 | 170 | 0 | 70 | 70 | 71 | 71 |
| 05/05/2026 | 3:00:00 | 125 | 63 | 2:00:00 | 63 | 2:56:02 | 63 | 73 | 2:59:03 | 71 | 2:00:00 | 73.34 | 0 | 7.4 | 165 | 0 | 70 | 69 | 71 | 71 |
| 05/05/2026 | 4:00:00 | 125 | 63 | 3:00:01 | 62 | 3:59:04 | 62 | 75 | 3:59:03 | 73 | 3:00:04 | 75.46 | 0 | 7.7 | 157 | 0 | 69 | 69 | 70 | 70 |
| 05/05/2026 | 5:00:00 | 125 | 62 | 4:19:01 | 61 | 4:58:01 | 61 | 77 | 4:58:04 | 75 | 4:00:02 | 77.25 | 0 | 8.7 | 166 | 0 | 69 | 69 | 70 | 70 |
| 05/05/2026 | 6:00:00 | 125 | 62 | 5:59:03 | 61 | 5:25:02 | 62 | 79 | 5:58:02 | 77 | 5:00:00 | 78.8 | 0 | 8.5 | 169 | 2 | 68 | 68 | 70 | 70 |
| 05/05/2026 | 7:00:00 | 125 | 65 | 6:59:05 | 62 | 6:00:00 | 65 | 79 | 6:13:03 | 78 | 6:56:05 | 78.43 | 0 | 10.2 | 172 | 9 | 68 | 68 | 69 | 69 |
| 05/05/2026 | 8:00:00 | 125 | 67 | 7:59:04 | 65 | 7:00:00 | 67 | 78 | 7:02:01 | 78 | 7:48:02 | 77.81 | 0 | 11.6 | 185 | 9 | 68 | 69 | 69 | 69 |
| 05/05/2026 | 9:00:00 | 125 | 69 | 8:59:02 | 67 | 8:00:00 | 69 | 78 | 8:10:04 | 78 | 8:59:03 | 77.71 | 0 | 12.1 | 179 | 10 | 69 | 69 | 69 | 69 |
| 05/05/2026 | 10:00:00 | 125 | 72 | 9:58:05 | 69 | 9:00:00 | 72 | 78 | 9:01:02 | 77 | 9:59:02 | 76.69 | 0 | 13.4 | 175 | 24 | 69 | 69 | 69 | 69 |
| 05/05/2026 | 11:00:00 | 125 | 72 | 10:52:03 | 71 | 10:08:02 | 72 | 77 | 10:22:02 | 76 | 10:53:02 | 76.49 | 0 | 13.5 | 180 | 18 | 70 | 70 | 70 | 70 |
| 05/05/2026 | 12:00:00 | 125 | 76 | 11:50:04 | 72 | 11:01:03 | 76 | 77 | 11:14:04 | 74 | 11:59:03 | 74.47 | 0 | 14.5 | 180 | 31 | 70 | 70 | 70 | 70 |
| 05/05/2026 | 13:00:00 | 125 | 77 | 13:00:00 | 75 | 12:13:03 | 77 | 74 | 12:01:00 | 73 | 12:58:05 | 72.89 | 0 | 15.4 | 184 | 32 | 71 | 71 | 70 | 70 |
| 05/05/2026 | 14:00:00 | 125 | 77 | 13:05:04 | 72 | 14:00:00 | 72 | 78 | 13:59:05 | 72 | 13:09:05 | 77.62 | 0 | 14.0 | 184 | 16 | 72 | 72 | 71 | 71 |
| 05/05/2026 | 15:00:00 | 125 | 74 | 14:59:05 | 72 | 14:08:05 | 74 | 82 | 14:47:05 | 78 | 14:00:00 | 81.2 | 0 | 9.4 | 192 | 9 | 72 | 72 | 71 | 71 |
| 05/05/2026 | 16:00:00 | 125 | 77 | 15:48:03 | 74 | 15:00:00 | 77 | 81 | 15:00:01 | 78 | 15:59:03 | 78.05 | 0 | 8.7 | 141 | 16 | 72 | 72 | 71 | 71 |
| 05/05/2026 | 17:00:00 | 125 | 77 | 16:55:03 | 77 | 16:02:00 | 77 | 78 | 16:00:01 | 76 | 16:59:00 | 76.1 | 0 | 12.6 | 169 | 6 | 72 | 72 | 71 | 71 |
| 05/05/2026 | 18:00:00 | 125 | 77 | 17:24:04 | 77 | 17:53:01 | 77 | 76 | 17:00:01 | 76 | 17:50:02 | 75.57 | 0 | 14.5 | 174 | 5 | 72 | 72 | 71 | 71 |
| 05/05/2026 | 19:00:00 | 125 | 77 | 18:01:01 | 77 | 18:55:02 | 77 | 77 | 18:59:04 | 76 | 18:12:03 | 76.62 | 0 | 12.9 | 174 | 2 | 72 | 72 | 71 | 71 |
| 05/05/2026 | 20:00:00 | 125 | 77 | 19:00:02 | 76 | 19:53:05 | 76 | 78 | 19:59:05 | 77 | 19:01:00 | 78.29 | 0 | 11.7 | 177 | 0 | 72 | 71 | 71 | 71 |
| 05/05/2026 | 21:00:00 | 125 | 76 | 20:01:04 | 75 | 20:57:04 | 75 | 80 | 20:59:05 | 78 | 20:00:01 | 80.1 | 0 | 9.6 | 173 | 0 | 71 | 71 | 71 | 71 |
| 05/05/2026 | 22:00:00 | 125 | 75 | 21:32:00 | 75 | 21:16:01 | 75 | 82 | 21:58:01 | 80 | 21:01:01 | 81.9 | 0 | 9.5 | 180 | 0 | 71 | 71 | 71 | 71 |
| 05/05/2026 | 23:00:00 | 125 | 75 | 22:49:05 | 75 | 22:18:04 | 75 | 83 | 23:00:00 | 82 | 22:01:00 | 83 | 0 | 10.5 | 176 | 0 | 71 | 71 | 71 | 71 |
| 05/06/2026 | 0:00:00 | 126 | 75 | 23:51:00 | 75 | 23:19:00 | 75 | 84 | 0:00:00 | 83 | 23:00:02 | 84.1 | 0 | 11.0 | 188 | 0 | 71 | 71 | 71 | 71 |
| 05/06/2026 | 1:00:00 | 126 | 75 | 0:02:03 | 74 | 0:59:03 | 74 | 85 | 0:59:05 | 84 | 0:02:02 | 85.3 | 0 | 11.2 | 196 | 0 | 71 | 71 | 71 | 71 |
| 05/06/2026 | 2:00:00 | 126 | 75 | 1:52:04 | 74 | 1:05:01 | 75 | 86 | 1:56:04 | 85 | 1:00:01 | 86.2 | 0 | 11.7 | 204 | 0 | 71 | 71 | 71 | 71 |
| 05/06/2026 | 3:00:00 | 126 | 75 | 2:00:03 | 73 | 2:59:05 | 73 | 87 | 2:59:02 | 86 | 2:02:03 | 87.4 | 0 | 10.6 | 202 | 0 | 71 | 71 | 71 | 71 |
| 05/06/2026 | 4:00:00 | 126 | 74 | 3:53:01 | 73 | 3:02:01 | 74 | 88 | 3:59:02 | 87 | 3:00:01 | 88.3 | 0 | 7.8 | 204 | 0 | 71 | 71 | 71 | 71 |
| 05/06/2026 | 5:00:00 | 126 | 74 | 4:57:03 | 74 | 4:01:05 | 74 | 89 | 4:56:00 | 88 | 4:02:00 | 88.5 | 0 | 9.1 | 208 | 0 | 71 | 71 | 71 | 71 |
| 05/06/2026 | 6:00:00 | 126 | 74 | 5:02:01 | 74 | 5:58:04 | 74 | 89 | 5:58:03 | 89 | 5:00:03 | 89.1 | 0 | 7.5 | 208 | 1 | 71 | 71 | 71 | 71 |
| 05/06/2026 | 7:00:00 | 126 | 75 | 6:59:04 | 74 | 6:09:00 | 75 | 90 | 6:42:02 | 89 | 6:00:00 | 89.4 | 0 | 7.4 | 201 | 5 | 71 | 71 | 71 | 71 |
| 05/06/2026 | 8:00:00 | 126 | 76 | 7:32:01 | 65 | 8:00:00 | 65 | 89 | 7:00:05 | 87 | 7:50:03 | 88.8 | 0 | 8.3 | 229 | 7 | 71 | 71 | 71 | 71 |
| 05/06/2026 | 9:00:00 | 126 | 65 | 8:00:00 | 61 | 8:59:04 | 61 | 91 | 8:59:03 | 89 | 8:00:05 | 91.1 | 0 | 10.2 | 357 | 7 | 71 | 71 | 71 | 71 |
| 05/06/2026 | 10:00:00 | 126 | 61 | 9:00:01 | 59 | 9:53:03 | 60 | 92 | 9:55:01 | 91 | 9:00:02 | 91.9 | 0 | 11.1 | 360 | 14 | 71 | 71 | 71 | 71 |
| 05/06/2026 | 11:00:00 | 126 | 60 | 10:46:02 | 59 | 10:21:01 | 59 | 93 | 10:40:04 | 92 | 10:00:01 | 92.4 | 0 | 11.2 | 358 | 25 | 71 | 71 | 71 | 71 |
| 05/06/2026 | 12:00:00 | 126 | 60 | 11:49:05 | 59 | 11:24:05 | 59 | 93 | 11:04:00 | 92 | 11:51:02 | 92.2 | 0 | 11.0 | 3 | 21 | 72 | 72 | 71 | 71 |
| 05/06/2026 | 13:00:00 | 126 | 60 | 12:58:01 | 59 | 12:02:00 | 60 | 92 | 12:02:04 | 92 | 12:58:05 | 91.9 | 0 | 9.1 | 360 | 16 | 72 | 72 | 71 | 71 |
| 05/06/2026 | 14:00:00 | 126 | 61 | 13:46:01 | 60 | 13:59:05 | 60 | 92 | 13:03:03 | 91 | 13:59:04 | 91 | 0 | 10.9 | 358 | 23 | 72 | 72 | 71 | 71 |
| 05/06/2026 | 15:00:00 | 126 | 60 | 14:00:00 | 57 | 14:52:00 | 57 | 91 | 14:11:04 | 91 | 14:35:03 | 90.9 | 0 | 13.5 | 5 | 14 | 72 | 72 | 72 | 72 |
| 05/06/2026 | 16:00:00 | 126 | 59 | 15:59:04 | 57 | 15:01:01 | 59 | 91 | 15:12:03 | 90 | 15:59:05 | 90.3 | 0 | 9.7 | 16 | 15 | 71 | 71 | 71 | 71 |
| 05/06/2026 | 17:00:00 | 126 | 59 | 16:04:05 | 59 | 16:37:01 | 59 | 90 | 16:03:05 | 89 | 16:57:02 | 89.3 | 0 | 6.6 | 15 | 7 | 71 | 71 | 71 | 71 |
| 05/06/2026 | 18:00:00 | 126 | 59 | 17:20:01 | 59 | 17:04:01 | 59 | 89 | 17:00:02 | 89 | 17:59:00 | 88.6 | 0 | 7.9 | 8 | 4 | 71 | 71 | 71 | 71 |
| 05/06/2026 | 19:00:00 | 126 | 59 | 18:09:02 | 58 | 18:41:05 | 58 | 89 | 18:57:02 | 88 | 18:13:05 | 89.2 | 0 | 10.0 | 4 | 0 | 70 | 70 | 71 | 71 |
| 05/06/2026 | 20:00:00 | 126 | 58 | 19:08:03 | 58 | 19:59:05 | 58 | 90 | 19:56:04 | 89 | 19:00:03 | 89.5 | 0 | 9.9 | 7 | 0 | 70 | 70 | 71 | 71 |
| 05/06/2026 | 21:00:00 | 126 | 58 | 20:20:01 | 57 | 20:55:03 | 57 | 90 | 20:59:02 | 90 | 20:00:00 | 90 | 0 | 9.4 | 7 | 0 | 69 | 69 | 70 | 70 |
| 05/06/2026 | 22:00:00 | 126 | 57 | 21:02:03 | 57 | 21:59:01 | 57 | 91 | 21:57:03 | 90 | 21:00:03 | 90.4 | 0 | 9.0 | 7 | 0 | 69 | 69 | 70 | 70 |
| 05/06/2026 | 23:00:00 | 126 | 57 | 22:23:03 | 57 | 22:58:03 | 57 | 91 | 22:59:05 | 90 | 22:01:02 | 91.2 | 0 | 8.2 | 3 | 0 | 69 | 68 | 70 | 70 |
| 05/07/2026 | 0:00:00 | 127 | 57 | 23:00:03 | 56 | 23:15:02 | 57 | 92 | 23:59:05 | 91 | 23:00:04 | 91.9 | 0 | 8.1 | 13 | 0 | 68 | 68 | 69 | 69 |
| 05/07/2026 | 1:00:00 | 127 | 57 | 0:14:04 | 57 | 0:57:04 | 57 | 92 | 0:47:02 | 92 | 0:00:01 | 92.1 | 0 | 7.1 | 8 | 0 | 68 | 68 | 69 | 69 |
| 05/07/2026 | 2:00:00 | 127 | 57 | 1:04:03 | 56 | 1:53:02 | 56 | 93 | 1:59:02 | 92 | 1:02:01 | 92.9 | 0 | 8.8 | 2 | 0 | 68 | 68 | 69 | 69 |
| Average | 65.77 | 64.11 | 64.87 | 74.73 | 72.36 | 73.56 | 0 | 6.73 | 15.3 | 71.16 | 71.18 | 71.23 | 71.19 | |||||||
| Total | 0.09 |